Grand Forks, ND (58201)

10:09 CDT le 30 septembre 2016 (GMT -0500)
Clover Drive | | Change Station

Alt. 846 ft 47.90 °N, 97.03 °W | Updated 15 seconds ago

Scattered Clouds
Nuages épars
54.9 ° F
Paraît 54.9 ° F
N
2.2
Vent Variable Vent de SE
Gusts 2.5 mph

Aujourd'hui
Haut(e) -- | Bas -- ° F
--% Risque de précip.
Hier
Haut(e) -- | Bas -- ° F
Precip. -- pouce
Pression 30.33 pouce
Visibilité 10.0 Miles terrestres
Nuages Nuages épars 20000 ft
Point de rosée 53 ° F
Humidité 94%
Précipitations 0.00 pouce
Profondeur de la couche neigeuse Non disponible.
7:26 AM 7:08 PM
Lune descendante, 0% visible
METAR KGFK 301453Z 16011KT 10SM SCT200 12/09 A3031 RMK AO2 SLP270 T01220094 56004
Pression 30.33 pouce
Visibilité 10.0 Miles terrestres
Nuages Nuages épars 20000 ft
Point de rosée 53 ° F
Humidité 94%
Précipitations 0.00 pouce
Profondeur de la couche neigeuse Non disponible.
7:26 AM 7:08 PM
Lune descendante, 0% visible
METAR KGFK 301453Z 16011KT 10SM SCT200 12/09 A3031 RMK AO2 SLP270 T01220094 56004

10-Day Weather Forecast

Almanac

Astronomie

Sep. 30, 2016 Lever Coucher
Temps réel
Crépuscule civil
Crépuscule nautique
Crépuscule astronomique
Lune
Durée de lumière visible
Longueur du jour
Tomorrow will be .
, % of the Moon is Illuminated

Extrêmes aujourd'hui

State Highs State Lows

Community

WunderPhotos

Upload Photos

1,942,729 Photos téléchargées !

WunderBlog® & News

Nearby

Qualité de l'air

  Qualité de l'air Indice de la qualité de l'air Polluant
Not available.

Épaisseur de neige

Station Depth Altitude

Activité sismique

Ville Distance Mag. Time & Date
Minimum magnitude displayed is 2.5.

Températures des eaux côtières

Lieu Température

Stations

Stations météo à proximité

Emplacement de la station Température Refroidissement éolien Point de rosée Humidité Vent Precip. Alt. Mise à jour Type
                   

Watches & Warnings

There are currently no watches in effect.